Terminal Aerodrome Forecast
Issued by NWS

Home | Current Version | Previous Version | Text Only | Print | Product List | Glossary On
Versions: 1 2 3 4 5 6 7 8 9 10 11 12 13 14 15 16 17 18 19 20 21 22 23 24 25 26 27
000
FTUS43 KDMX 250520
TAFOTM
TAF
KOTM 250520Z 2506/2606 17005KT P6SM SKC
     FM251000 16005KT P6SM VCTS SCT035CB BKN090
     FM251300 16005KT 5SM -TSRA BKN035CB BKN080
     FM251700 17012KT P6SM VCTS BKN035CB
     FM252000 17014KT P6SM BKN100
     FM260200 20008KT P6SM BKN120=

USA.gov is the U.S. government's official web portal to all federal, state and local government web resources and services.